Time;durP1;ratioP1;P1;durP2;ratioP2;P2;SDS_P1;SDS_P2;PMS_P1;PMS_P2;Temp;Humidity;BMP_temperature;BMP_pressure;BME280_temperature;BME280_humidity;BME280_pressure;Samples;Min_cycle;Max_cycle;Signal;HPM_P1;HPM_P2
2022/03/18 00:00:24;;;;;;;10.83;6.10;;;;;2.20;103300.00;;;;10127697;29;20261;-76
2022/03/18 00:05:26;;;;;;;13.20;6.67;;;;;2.10;103298.00;;;;10103905;29;20793;-77
2022/03/18 00:10:29;;;;;;;14.90;7.60;;;;;2.00;103303.00;;;;10123422;29;20692;-76
2022/03/18 00:15:31;;;;;;;11.07;7.20;;;;;1.90;103293.00;;;;10149039;29;20199;-77
2022/03/18 00:20:33;;;;;;;7.17;6.27;;;;;1.90;103299.00;;;;10133062;29;20207;-77
2022/03/18 00:25:35;;;;;;;10.07;6.83;;;;;1.80;103300.00;;;;10148460;29;20697;-77
2022/03/18 00:30:37;;;;;;;12.57;6.57;;;;;1.70;103315.00;;;;10147887;29;20207;-77
2022/03/18 00:35:39;;;;;;;11.77;6.87;;;;;1.60;103314.00;;;;10130854;29;20674;-77
2022/03/18 00:40:42;;;;;;;18.60;8.47;;;;;1.60;103326.00;;;;10109774;29;20227;-77
2022/03/18 00:45:44;;;;;;;13.03;7.40;;;;;1.60;103327.00;;;;10109021;29;20283;-77
2022/03/18 00:56:07;;;;;;;12.80;8.17;;;;;1.50;103336.00;;;;10147549;29;20289;-77
2022/03/18 01:01:09;;;;;;;14.97;8.70;;;;;1.40;103336.00;;;;10113634;29;20298;-77
2022/03/18 01:06:11;;;;;;;15.50;9.13;;;;;1.30;103345.00;;;;10092916;29;20288;-76
2022/03/18 01:11:13;;;;;;;15.13;9.10;;;;;1.20;103352.00;;;;10108704;29;20208;-77
2022/03/18 01:16:16;;;;;;;13.50;9.23;;;;;1.00;103346.00;;;;10108091;29;20204;-77
2022/03/18 01:21:18;;;;;;;14.50;9.27;;;;;1.00;103345.00;;;;10140853;29;20778;-76
2022/03/18 01:26:20;;;;;;;14.67;9.30;;;;;1.00;103346.00;;;;10114557;29;20215;-76
2022/03/18 01:31:22;;;;;;;17.60;11.67;;;;;0.90;103351.00;;;;10108009;29;20259;-77
2022/03/18 01:36:25;;;;;;;14.27;10.57;;;;;0.90;103344.00;;;;10123362;29;20231;-77
2022/03/18 01:41:27;;;;;;;16.43;9.47;;;;;0.80;103333.00;;;;10122553;29;20215;-77
2022/03/18 01:46:28;;;;;;;17.00;10.67;;;;;0.80;103343.00;;;;10146182;29;20211;-76
2022/03/18 01:51:31;;;;;;;18.83;10.93;;;;;0.80;103346.00;;;;10145974;29;20222;-77
2022/03/18 01:56:33;;;;;;;14.87;10.37;;;;;0.70;103367.00;;;;10130777;29;20207;-77
2022/03/18 02:01:35;;;;;;;17.10;10.03;;;;;0.60;103362.00;;;;10136612;29;20218;-76
2022/03/18 02:06:38;;;;;;;20.00;10.50;;;;;0.60;103373.00;;;;10119460;29;20215;-77
2022/03/18 02:11:40;;;;;;;16.90;10.17;;;;;0.50;103379.00;;;;10105484;29;20673;-76
2022/03/18 02:16:42;;;;;;;15.10;9.80;;;;;0.40;103382.00;;;;10122179;29;20208;-77
2022/03/18 02:21:44;;;;;;;18.97;9.90;;;;;0.30;103369.00;;;;10153670;29;20574;-77
2022/03/18 02:26:50;;;;;;;19.90;10.40;;;;;0.20;103362.00;;;;10126484;29;20588;-76
2022/03/18 02:31:52;;;;;;;17.43;10.43;;;;;0.20;103349.00;;;;10128882;29;20201;-77
2022/03/18 02:36:55;;;;;;;16.60;9.63;;;;;0.20;103372.00;;;;10116263;29;20617;-76
2022/03/18 02:41:57;;;;;;;21.43;10.30;;;;;0.20;103369.00;;;;10104523;29;20232;-77
2022/03/18 02:46:59;;;;;;;14.23;9.50;;;;;0.20;103364.00;;;;10128766;29;20329;-77
2022/03/18 02:52:01;;;;;;;15.87;10.40;;;;;0.10;103369.00;;;;10123240;29;21024;-77
2022/03/18 02:57:04;;;;;;;19.70;10.40;;;;;0.10;103370.00;;;;10088958;29;20204;-77
2022/03/18 03:02:06;;;;;;;15.90;10.13;;;;;0.10;103379.00;;;;10137145;29;20214;-77
2022/03/18 03:12:29;;;;;;;17.70;10.70;;;;;0.00;103402.00;;;;10103987;29;20226;-76
2022/03/18 03:17:31;;;;;;;16.00;11.20;;;;;-0.10;103400.00;;;;10119296;29;20259;-77
2022/03/18 03:22:33;;;;;;;25.57;10.33;;;;;-0.10;103410.00;;;;10126760;29;20263;-77
2022/03/18 03:27:35;;;;;;;19.20;11.47;;;;;-0.20;103421.00;;;;10157668;29;20658;-77
2022/03/18 03:32:37;;;;;;;14.70;10.60;;;;;-0.20;103429.00;;;;10157712;29;20650;-76
2022/03/18 03:37:39;;;;;;;19.23;11.97;;;;;-0.20;103439.00;;;;10109902;29;20649;-76
2022/03/18 03:42:42;;;;;;;20.80;10.80;;;;;-0.30;103440.00;;;;10142086;29;20311;-77
2022/03/18 03:47:44;;;;;;;16.93;10.93;;;;;-0.40;103438.00;;;;10141261;29;20211;-76
2022/03/18 03:52:46;;;;;;;17.07;10.50;;;;;-0.40;103453.00;;;;10141347;29;20250;-76
2022/03/18 03:57:48;;;;;;;19.90;10.80;;;;;-0.50;103454.00;;;;10141649;29;20255;-76
2022/03/18 04:02:50;;;;;;;15.97;9.97;;;;;-0.50;103456.00;;;;10125766;29;20851;-76
2022/03/18 04:07:52;;;;;;;21.83;11.23;;;;;-0.60;103455.00;;;;10105994;29;20218;-76
2022/03/18 04:12:54;;;;;;;16.00;10.67;;;;;-0.60;103451.00;;;;10102586;29;20195;-76
2022/03/18 04:17:56;;;;;;;20.13;10.97;;;;;-0.60;103455.00;;;;10119701;29;20204;-76
2022/03/18 04:22:58;;;;;;;15.77;11.23;;;;;-0.50;103465.00;;;;10141267;29;20320;-76
2022/03/18 04:28:00;;;;;;;22.07;11.43;;;;;-0.50;103465.00;;;;10125475;29;20203;-76
2022/03/18 04:33:02;;;;;;;16.20;11.13;;;;;-0.50;103474.00;;;;10125413;29;20204;-76
2022/03/18 04:38:04;;;;;;;19.10;11.73;;;;;-0.50;103480.00;;;;10137364;29;20235;-76
2022/03/18 04:43:06;;;;;;;22.00;12.13;;;;;-0.60;103484.00;;;;10132513;29;20227;-76
2022/03/18 04:48:08;;;;;;;22.30;12.57;;;;;-0.60;103499.00;;;;10176422;29;20234;-76
2022/03/18 04:53:09;;;;;;;16.93;11.03;;;;;-0.70;103505.00;;;;10131803;29;20208;-76
2022/03/18 04:58:11;;;;;;;16.47;11.53;;;;;-0.60;103499.00;;;;10092989;29;20242;-75
2022/03/18 05:03:13;;;;;;;18.73;11.53;;;;;-0.70;103505.00;;;;10108287;29;20347;-76
2022/03/18 05:08:15;;;;;;;17.83;11.33;;;;;-0.80;103501.00;;;;10121061;29;20211;-76
2022/03/18 05:13:17;;;;;;;19.43;10.57;;;;;-0.90;103507.00;;;;10146898;29;20230;-76
2022/03/18 05:18:19;;;;;;;17.43;11.50;;;;;-0.90;103518.00;;;;10107211;29;20373;-76
2022/03/18 05:23:21;;;;;;;20.77;11.73;;;;;-0.90;103515.00;;;;10092689;29;20219;-76
2022/03/18 05:28:23;;;;;;;17.03;11.37;;;;;-1.00;103520.00;;;;10107326;29;20231;-76
2022/03/18 05:33:25;;;;;;;14.57;11.50;;;;;-1.00;103523.00;;;;10122795;29;20203;-76
2022/03/18 05:38:27;;;;;;;19.27;11.73;;;;;-1.00;103524.00;;;;10141472;29;20307;-76
2022/03/18 05:43:29;;;;;;;19.77;12.30;;;;;-1.00;103529.00;;;;10113770;29;20227;-76
2022/03/18 05:48:31;;;;;;;18.60;10.77;;;;;-1.00;103534.00;;;;10107199;29;20235;-76
2022/03/18 05:53:33;;;;;;;18.87;12.00;;;;;-0.90;103540.00;;;;10122498;29;20655;-76
2022/03/18 05:58:35;;;;;;;22.97;11.97;;;;;-1.00;103535.00;;;;10113200;29;20200;-76
2022/03/18 06:03:37;;;;;;;15.43;11.27;;;;;-0.90;103528.00;;;;10105919;29;20279;-76
2022/03/18 06:13:59;;;;;;;16.07;11.27;;;;;-0.60;103543.00;;;;10128799;29;20226;-77
2022/03/18 06:19:01;;;;;;;19.63;12.37;;;;;-0.50;103540.00;;;;10109497;29;20208;-77
2022/03/18 06:24:04;;;;;;;17.17;12.00;;;;;-0.30;103541.00;;;;10121257;29;20196;-77
2022/03/18 06:29:06;;;;;;;16.70;12.93;;;;;0.00;103556.00;;;;10105961;29;20258;-77
2022/03/18 06:34:10;;;;;;;23.70;14.97;;;;;0.50;103557.00;;;;10092787;29;20244;-77
2022/03/18 06:39:13;;;;;;;28.40;14.90;;;;;0.80;103568.00;;;;10140254;29;20270;-77
2022/03/18 06:44:15;;;;;;;22.17;14.00;;;;;1.10;103573.00;;;;10125499;29;20200;-77
2022/03/18 06:49:17;;;;;;;28.40;14.47;;;;;1.30;103578.00;;;;10126350;29;20204;-77
2022/03/18 06:54:19;;;;;;;26.60;15.07;;;;;1.70;103596.00;;;;10092091;29;21047;-78
2022/03/18 06:59:21;;;;;;;25.67;15.33;;;;;2.00;103584.00;;;;10109047;29;20212;-77
2022/03/18 07:04:23;;;;;;;23.57;15.13;;;;;2.60;103597.00;;;;10110133;29;20199;-77
2022/03/18 07:09:25;;;;;;;28.87;17.07;;;;;3.30;103610.00;;;;10103931;29;20280;-77
2022/03/18 07:14:27;;;;;;;21.97;14.40;;;;;4.00;103607.00;;;;10096935;29;20232;-78
2022/03/18 07:19:29;;;;;;;24.47;13.33;;;;;4.70;103601.00;;;;10104392;29;20275;-78
2022/03/18 07:24:32;;;;;;;20.17;12.37;;;;;5.30;103598.00;;;;10100080;29;20220;-79
2022/03/18 07:29:35;;;;;;;20.33;12.03;;;;;5.70;103605.00;;;;10095122;29;20211;-78
2022/03/18 07:34:37;;;;;;;22.30;12.67;;;;;6.00;103611.00;;;;10088159;29;20291;-78
2022/03/18 07:39:39;;;;;;;18.40;12.80;;;;;6.40;103620.00;;;;10104264;29;20283;-78
2022/03/18 07:50:37;;;;;;;19.20;13.10;;;;;7.40;103642.00;;;;10520431;27;20574;-76
2022/03/18 07:55:40;;;;;;;17.53;10.80;;;;;7.70;103655.00;;;;10504355;28;20193;-76
2022/03/18 08:00:43;;;;;;;15.90;10.93;;;;;8.00;103676.00;;;;10513583;28;20213;-76
2022/03/18 08:05:46;;;;;;;15.33;9.83;;;;;8.20;103691.00;;;;10520352;28;20280;-76
2022/03/18 08:10:48;;;;;;;18.83;11.20;;;;;8.50;103692.00;;;;10521626;28;20594;-76
2022/03/18 08:15:51;;;;;;;15.23;10.40;;;;;8.90;103679.00;;;;10531950;28;20250;-76
2022/03/18 08:20:53;;;;;;;18.33;9.53;;;;;9.40;103681.00;;;;10514994;28;20196;-76
2022/03/18 08:25:55;;;;;;;16.37;8.67;;;;;9.60;103691.00;;;;10508240;28;20198;-76
2022/03/18 08:30:57;;;;;;;13.83;7.97;;;;;10.10;103685.00;;;;10475802;28;20197;-76
2022/03/18 08:35:59;;;;;;;12.83;7.33;;;;;10.60;103693.00;;;;10535683;28;20235;-75
2022/03/18 08:41:02;;;;;;;11.67;7.13;;;;;10.90;103702.00;;;;10501415;28;20193;-76
2022/03/18 08:46:04;;;;;;;15.37;7.53;;;;;11.30;103705.00;;;;10478879;28;20302;-76
2022/03/18 08:51:07;;;;;;;13.87;7.40;;;;;11.90;103708.00;;;;10501435;28;20196;-75
2022/03/18 08:56:09;;;;;;;14.17;7.40;;;;;12.10;103714.00;;;;10488319;28;20186;-76
2022/03/18 09:01:10;;;;;;;14.27;6.50;;;;;12.40;103717.00;;;;10479326;28;20186;-76
2022/03/18 09:06:14;;;;;;;12.37;6.20;;;;;12.60;103722.00;;;;10492187;28;20222;-76
2022/03/18 09:11:16;;;;;;;10.30;4.67;;;;;13.10;103728.00;;;;10465672;28;20198;-75
2022/03/18 09:16:18;;;;;;;11.97;6.17;;;;;13.40;103726.00;;;;10460422;28;20236;-76
2022/03/18 09:21:35;;;;;;;9.90;5.30;;;;;13.60;103735.00;;;;10444946;28;20212;-76
2022/03/18 09:26:37;;;;;;;8.53;5.10;;;;;13.90;103738.00;;;;10484658;28;20213;-76
2022/03/18 09:31:42;;;;;;;9.93;5.13;;;;;14.30;103738.00;;;;10500639;28;20757;-75
2022/03/18 09:36:44;;;;;;;7.80;4.97;;;;;14.70;103752.00;;;;10458536;28;20214;-75
2022/03/18 09:41:47;;;;;;;11.03;5.30;;;;;15.00;103749.00;;;;10450385;28;20186;-75
2022/03/18 09:46:52;;;;;;;8.47;5.13;;;;;15.30;103754.00;;;;10483141;28;20317;-75
2022/03/18 09:52:02;;;;;;;7.80;3.77;;;;;15.70;103751.00;;;;10478172;28;20320;-76
2022/03/18 09:57:06;;;;;;;5.40;3.35;;;;;16.10;103758.00;;;;10495551;28;20199;-76
2022/03/18 10:02:28;;;;;;;7.05;4.00;;;;;16.30;103756.00;;;;10470409;28;20232;-76
2022/03/18 10:07:30;;;;;;;6.97;3.85;;;;;16.50;103756.00;;;;10472605;28;20276;-75
2022/03/18 10:12:39;;;;;;;6.78;4.20;;;;;16.70;103755.00;;;;10464221;28;20190;-76
2022/03/18 10:17:46;;;;;;;8.73;3.55;;;;;16.80;103748.00;;;;10466883;28;20212;-75
2022/03/18 10:22:51;;;;;;;6.68;3.20;;;;;17.10;103741.00;;;;10453824;28;20647;-75
2022/03/18 10:27:58;;;;;;;6.90;3.33;;;;;17.20;103748.00;;;;10446528;28;20284;-77
2022/03/18 10:33:10;;;;;;;5.45;2.67;;;;;17.10;103746.00;;;;10476252;28;20200;-76
2022/03/18 10:38:14;;;;;;;6.82;3.40;;;;;17.50;103744.00;;;;10451210;28;20848;-76
2022/03/18 10:43:17;;;;;;;6.43;3.10;;;;;17.60;103741.00;;;;10438306;28;20194;-75
2022/03/18 10:48:20;;;;;;;7.00;3.00;;;;;17.50;103743.00;;;;10464367;28;20675;-74
2022/03/18 10:53:28;;;;;;;6.82;3.60;;;;;17.90;103745.00;;;;10469386;28;20186;-76
2022/03/18 10:58:35;;;;;;;4.43;2.65;;;;;17.60;103751.00;;;;10449260;28;20224;-76
2022/03/18 11:03:40;;;;;;;6.32;2.70;;;;;17.80;103755.00;;;;10464826;28;20189;-76
2022/03/18 11:08:42;;;;;;;8.45;3.47;;;;;18.10;103742.00;;;;10447375;28;20829;-76
2022/03/18 11:14:06;;;;;;;6.03;3.00;;;;;18.10;103748.00;;;;10438936;28;20714;-76
2022/03/18 11:19:09;;;;;;;4.95;2.67;;;;;18.50;103750.00;;;;10441427;28;20645;-77
2022/03/18 11:24:22;;;;;;;4.85;2.85;;;;;18.70;103741.00;;;;10424483;28;20202;-77
2022/03/18 11:29:26;;;;;;;4.47;2.55;;;;;18.80;103736.00;;;;10491125;28;20182;-77
2022/03/18 11:34:28;;;;;;;5.43;3.20;;;;;18.50;103740.00;;;;10489355;28;20204;-76
2022/03/18 11:39:30;;;;;;;7.55;2.85;;;;;18.30;103730.00;;;;10501040;28;20205;-77
2022/03/18 11:44:40;;;;;;;10.45;2.53;;;;;18.90;103725.00;;;;10479129;28;20256;-77
2022/03/18 11:49:42;;;;;;;6.43;2.50;;;;;19.00;103726.00;;;;10466005;28;20251;-76
2022/03/18 11:54:56;;;;;;;8.63;2.70;;;;;19.20;103720.00;;;;10473073;28;20263;-76
2022/03/18 12:00:00;;;;;;;4.57;1.95;;;;;19.20;103708.00;;;;10464493;28;20244;-76
2022/03/18 12:05:05;;;;;;;5.18;2.72;;;;;19.40;103706.00;;;;10515672;28;20204;-77
2022/03/18 12:10:09;;;;;;;3.60;2.55;;;;;19.40;103704.00;;;;10480369;28;20284;-76
2022/03/18 12:15:17;;;;;;;5.70;2.85;;;;;19.10;103702.00;;;;10495267;28;20185;-74
2022/03/18 12:20:22;;;;;;;5.38;2.70;;;;;19.30;103696.00;;;;10464571;28;20205;-75
2022/03/18 12:25:24;;;;;;;5.15;2.50;;;;;19.50;103690.00;;;;10478564;28;20291;-76
2022/03/18 12:30:28;;;;;;;5.82;2.83;;;;;19.60;103701.00;;;;10491348;28;20652;-77
2022/03/18 12:35:36;;;;;;;7.22;2.35;;;;;19.50;103695.00;;;;10469157;28;20210;-76
2022/03/18 12:40:40;;;;;;;7.28;2.72;;;;;19.60;103690.00;;;;10469031;28;20266;-76
2022/03/18 12:45:44;;;;;;;4.95;2.13;;;;;19.50;103681.00;;;;10522071;28;20544;-76
2022/03/18 12:50:51;;;;;;;6.22;2.28;;;;;19.60;103685.00;;;;10501554;28;20186;-77
2022/03/18 12:55:55;;;;;;;5.97;2.47;;;;;19.60;103678.00;;;;10467971;28;20193;-77
2022/03/18 13:01:13;;;;;;;4.28;2.20;;;;;19.60;103681.00;;;;10480098;28;20217;-77
2022/03/18 13:06:20;;;;;;;6.18;2.22;;;;;19.80;103674.00;;;;10486479;28;20280;-77
2022/03/18 13:11:31;;;;;;;5.25;2.30;;;;;20.00;103671.00;;;;10467708;28;20564;-77
2022/03/18 13:16:40;;;;;;;5.85;2.50;;;;;19.70;103671.00;;;;10501066;28;20212;-77
2022/03/18 13:21:50;;;;;;;4.93;1.95;;;;;19.70;103660.00;;;;10470368;28;20197;-77
2022/03/18 13:26:51;;;;;;;7.45;2.50;;;;;19.50;103672.00;;;;10472324;28;20648;-76
2022/03/18 13:37:16;;;;;;;6.10;2.78;;;;;20.70;103644.00;;;;10502867;28;20292;-76
2022/03/18 13:42:25;;;;;;;6.07;2.25;;;;;22.60;103634.00;;;;10500718;28;20197;-76
2022/03/18 13:47:46;;;;;;;7.38;2.30;;;;;24.40;103618.00;;;;10464884;28;20204;-75
2022/03/18 13:52:48;;;;;;;4.00;2.63;;;;;25.00;103596.00;;;;10469141;28;20204;-75
2022/03/18 13:57:51;;;;;;;6.45;2.53;;;;;25.60;103587.00;;;;10491889;28;20205;-75
2022/03/18 14:03:06;;;;;;;4.07;2.42;;;;;26.20;103569.00;;;;10483154;28;20674;-75
2022/03/18 14:08:08;;;;;;;7.65;2.17;;;;;26.40;103567.00;;;;10473743;28;20208;-75
2022/03/18 14:13:12;;;;;;;7.18;2.67;;;;;25.90;103552.00;;;;10534069;28;20185;-75
2022/03/18 14:18:17;;;;;;;5.85;2.38;;;;;24.50;103604.00;;;;10479282;28;20202;-74
2022/03/18 14:23:28;;;;;;;5.13;2.60;;;;;24.20;103512.00;;;;10465529;28;20652;-74
2022/03/18 14:28:30;;;;;;;6.78;2.72;;;;;26.40;103522.00;;;;10465269;28;20196;-74
2022/03/18 14:33:35;;;;;;;6.22;2.55;;;;;27.00;103508.00;;;;10517281;28;20185;-75
2022/03/18 14:38:37;;;;;;;4.80;2.40;;;;;27.50;103520.00;;;;10481861;28;20245;-75
2022/03/18 14:43:39;;;;;;;8.13;2.72;;;;;27.10;103508.00;;;;10495436;28;20204;-74
2022/03/18 14:48:41;;;;;;;3.17;2.08;;;;;26.30;103516.00;;;;10457723;28;20201;-75
2022/03/18 14:53:43;;;;;;;8.50;2.35;;;;;25.40;103542.00;;;;10453586;28;20193;-75
2022/03/18 14:58:45;;;;;;;4.07;2.17;;;;;22.20;103561.00;;;;10434908;28;20692;-75
2022/03/18 15:03:49;;;;;;;5.20;2.25;;;;;21.80;103525.00;;;;10454092;28;20251;-76
2022/03/18 15:08:51;;;;;;;4.72;2.38;;;;;21.60;103520.00;;;;10483776;28;20239;-77
2022/03/18 15:13:53;;;;;;;5.88;2.28;;;;;24.30;103505.00;;;;10473994;28;20607;-76
2022/03/18 15:18:56;;;;;;;6.47;2.78;;;;;23.10;103504.00;;;;10493349;28;20217;-75
2022/03/18 15:24:00;;;;;;;6.43;2.40;;;;;20.80;103559.00;;;;10471821;28;20178;-75
2022/03/18 15:29:02;;;;;;;7.03;2.63;;;;;20.00;103562.00;;;;10463358;28;20239;-75
2022/03/18 15:34:06;;;;;;;9.52;3.20;;;;;20.40;103558.00;;;;10472605;28;20259;-77
2022/03/18 15:39:08;;;;;;;5.10;2.70;;;;;19.60;103561.00;;;;10461504;28;20210;-77
2022/03/18 15:44:12;;;;;;;5.35;2.63;;;;;18.90;103556.00;;;;10456103;28;20209;-77
2022/03/18 15:49:14;;;;;;;6.70;2.55;;;;;18.20;103554.00;;;;10474191;28;20208;-76
2022/03/18 15:54:16;;;;;;;4.90;2.55;;;;;17.90;103556.00;;;;10485021;28;20222;-77
2022/03/18 15:59:19;;;;;;;3.80;2.45;;;;;17.00;103552.00;;;;10480680;28;20198;-76
2022/03/18 16:04:22;;;;;;;7.25;2.20;;;;;16.80;103560.00;;;;10479595;28;20204;-76
2022/03/18 16:09:31;;;;;;;5.50;2.65;;;;;16.30;103552.00;;;;10475726;28;20220;-75
2022/03/18 16:14:34;;;;;;;5.60;2.70;;;;;16.00;103545.00;;;;10477665;28;20204;-75
2022/03/18 16:19:39;;;;;;;5.70;2.50;;;;;15.50;103545.00;;;;10476014;28;20252;-75
2022/03/18 16:24:48;;;;;;;8.37;2.70;;;;;15.20;103547.00;;;;10462574;28;20289;-75
2022/03/18 16:29:50;;;;;;;8.60;3.17;;;;;15.00;103553.00;;;;10485121;28;20218;-76
2022/03/18 16:34:53;;;;;;;5.87;2.30;;;;;14.90;103557.00;;;;10493408;28;20726;-76
2022/03/18 16:39:55;;;;;;;5.13;2.60;;;;;14.80;103570.00;;;;10496383;28;20255;-75
2022/03/18 16:44:58;;;;;;;7.00;2.67;;;;;14.60;103556.00;;;;10482590;28;20202;-76
2022/03/18 16:50:03;;;;;;;6.80;2.50;;;;;14.40;103558.00;;;;10447240;28;20204;-76
2022/03/18 16:55:07;;;;;;;5.17;2.67;;;;;14.30;103569.00;;;;10484730;28;20224;-76
2022/03/18 17:00:14;;;;;;;5.33;2.73;;;;;14.10;103567.00;;;;10483807;28;20208;-76
2022/03/18 17:05:16;;;;;;;3.97;2.47;;;;;14.00;103572.00;;;;10501379;28;20235;-76
2022/03/18 17:10:19;;;;;;;4.20;2.00;;;;;13.80;103583.00;;;;10455769;28;20190;-76
2022/03/18 17:15:21;;;;;;;8.83;2.83;;;;;13.60;103577.00;;;;10480566;28;20190;-76
2022/03/18 17:20:24;;;;;;;7.10;3.63;;;;;13.50;103578.00;;;;10481840;28;20679;-76
2022/03/18 17:25:25;;;;;;;5.27;3.00;;;;;13.30;103587.00;;;;10460220;28;20202;-76
2022/03/18 17:30:28;;;;;;;5.77;2.60;;;;;13.10;103582.00;;;;10495632;28;20586;-76
2022/03/18 17:35:30;;;;;;;7.23;2.43;;;;;13.00;103594.00;;;;10481028;28;20213;-75
2022/03/18 17:40:33;;;;;;;7.10;2.90;;;;;12.80;103602.00;;;;10499724;28;20213;-76
2022/03/18 17:45:35;;;;;;;11.00;2.90;;;;;12.70;103604.00;;;;10474085;28;20199;-76
2022/03/18 17:50:37;;;;;;;3.53;2.83;;;;;12.40;103607.00;;;;10493642;28;20193;-75
2022/03/18 17:55:39;;;;;;;5.27;2.80;;;;;12.30;103604.00;;;;10441729;28;20293;-75
2022/03/18 18:00:41;;;;;;;7.90;3.23;;;;;12.10;103612.00;;;;10498705;28;20698;-76
2022/03/18 18:05:44;;;;;;;7.27;3.63;;;;;12.00;103610.00;;;;10474860;28;20667;-76
2022/03/18 18:10:47;;;;;;;6.87;4.03;;;;;11.80;103617.00;;;;10472773;28;20182;-76
2022/03/18 18:15:50;;;;;;;9.17;3.23;;;;;11.70;103627.00;;;;10481279;28;20301;-76
2022/03/18 18:26:17;;;;;;;13.80;6.00;;;;;11.50;103620.00;;;;10467877;28;20194;-76
2022/03/18 18:31:21;;;;;;;10.70;5.30;;;;;11.30;103617.00;;;;10445339;28;20190;-76
2022/03/18 18:36:23;;;;;;;11.13;4.03;;;;;11.20;103628.00;;;;10480653;28;20288;-76
2022/03/18 18:41:25;;;;;;;13.80;4.40;;;;;11.20;103626.00;;;;10479795;28;20216;-76
2022/03/18 18:46:27;;;;;;;5.27;3.13;;;;;11.10;103626.00;;;;10462186;28;20193;-76
2022/03/18 18:51:30;;;;;;;6.30;3.90;;;;;11.00;103628.00;;;;10455904;28;20755;-76
2022/03/18 18:56:35;;;;;;;6.67;3.67;;;;;10.90;103628.00;;;;10430525;28;20185;-76
2022/03/18 19:01:39;;;;;;;8.67;4.13;;;;;10.70;103632.00;;;;10454963;28;20221;-76
2022/03/18 19:06:43;;;;;;;7.80;3.97;;;;;10.70;103629.00;;;;10487136;28;20189;-76
2022/03/18 19:11:45;;;;;;;11.60;3.90;;;;;10.60;103628.00;;;;10460763;28;20204;-76
2022/03/18 19:16:48;;;;;;;7.93;3.67;;;;;10.60;103625.00;;;;10448227;28;20203;-76
2022/03/18 19:21:51;;;;;;;4.23;3.50;;;;;10.60;103634.00;;;;10494088;28;20209;-77
2022/03/18 19:26:52;;;;;;;7.33;4.03;;;;;10.60;103622.00;;;;10459176;28;20190;-76
2022/03/18 19:37:15;;;;;;;8.40;4.03;;;;;10.40;103632.00;;;;10487549;28;20217;-76
2022/03/18 19:42:17;;;;;;;10.17;5.10;;;;;10.40;103639.00;;;;10452401;28;20190;-76
2022/03/18 19:47:19;;;;;;;7.33;4.00;;;;;10.30;103635.00;;;;10467969;28;20556;-76
2022/03/18 19:52:22;;;;;;;7.83;4.57;;;;;10.30;103641.00;;;;10499778;28;20185;-76
2022/03/18 20:02:45;;;;;;;8.80;4.60;;;;;10.10;103650.00;;;;10485853;28;20192;-76
2022/03/18 20:07:47;;;;;;;7.13;4.50;;;;;10.10;103646.00;;;;10501283;28;20192;-76
2022/03/18 20:12:52;;;;;;;8.50;5.00;;;;;10.00;103650.00;;;;10540898;28;20201;-77
2022/03/18 20:17:54;;;;;;;11.43;4.77;;;;;10.00;103655.00;;;;10485383;28;20243;-77
2022/03/18 20:22:56;;;;;;;8.20;5.67;;;;;9.90;103656.00;;;;10491632;28;20207;-76
2022/03/18 20:28:15;;;;;;;8.07;5.00;;;;;9.90;103652.00;;;;10481595;28;20566;-76
2022/03/18 20:33:53;;;;;;;11.67;5.67;;;;;9.90;103653.00;;;;10494326;28;20193;-76
2022/03/18 20:38:59;;;;;;;7.77;5.20;;;;;9.80;103652.00;;;;10475463;28;20237;-77
2022/03/18 20:44:01;;;;;;;9.77;5.27;;;;;9.70;103669.00;;;;10503035;28;20185;-76
2022/03/18 20:49:05;;;;;;;8.90;5.70;;;;;9.70;103661.00;;;;10522245;28;20200;-76
2022/03/18 20:54:09;;;;;;;14.80;5.93;;;;;9.60;103651.00;;;;10511785;28;20239;-77
2022/03/18 20:59:11;;;;;;;13.13;6.57;;;;;9.60;103661.00;;;;10535177;28;20208;-78
2022/03/18 21:04:13;;;;;;;11.00;5.43;;;;;9.50;103672.00;;;;10569266;28;20266;-78
2022/03/18 21:09:16;;;;;;;7.00;5.60;;;;;9.40;103672.00;;;;10550047;28;20199;-78
2022/03/18 21:14:18;;;;;;;8.10;5.70;;;;;9.40;103675.00;;;;10535226;28;20196;-75
2022/03/18 21:19:19;;;;;;;9.20;6.57;;;;;9.30;103681.00;;;;10534448;28;20208;-78
2022/03/18 21:24:21;;;;;;;9.13;5.80;;;;;9.20;103672.00;;;;10545203;28;20715;-77
2022/03/18 21:34:45;;;;;;;9.17;6.63;;;;;9.20;103689.00;;;;10533525;28;20214;-78
2022/03/18 21:39:48;;;;;;;9.67;6.07;;;;;9.10;103688.00;;;;10566859;28;20211;-78
2022/03/18 21:44:50;;;;;;;11.77;5.73;;;;;9.10;103687.00;;;;10529134;28;20192;-77
2022/03/18 21:49:53;;;;;;;11.23;6.13;;;;;9.00;103689.00;;;;10532375;28;20254;-77
2022/03/18 21:54:55;;;;;;;9.87;6.37;;;;;9.00;103688.00;;;;10539814;28;20225;-77
2022/03/18 21:59:57;;;;;;;10.60;6.40;;;;;8.90;103691.00;;;;10528106;28;20204;-77
2022/03/18 22:05:13;;;;;;;9.63;6.00;;;;;8.90;103681.00;;;;10556665;28;20278;-77
2022/03/18 22:10:15;;;;;;;9.33;5.87;;;;;8.90;103677.00;;;;10549517;27;20194;-77
2022/03/18 22:15:17;;;;;;;13.80;6.60;;;;;8.80;103688.00;;;;10539046;28;20270;-77
2022/03/18 22:20:20;;;;;;;9.07;6.07;;;;;8.80;103686.00;;;;10534192;28;20205;-75
2022/03/18 22:25:22;;;;;;;11.63;5.70;;;;;8.80;103675.00;;;;10509883;28;20229;-75
2022/03/18 22:30:25;;;;;;;8.47;6.27;;;;;8.80;103684.00;;;;10527194;28;20280;-75
2022/03/18 22:35:27;;;;;;;8.27;5.90;;;;;8.80;103677.00;;;;10530385;28;20223;-75
2022/03/18 22:40:29;;;;;;;11.00;6.10;;;;;8.70;103677.00;;;;10544889;28;20197;-75
2022/03/18 22:45:31;;;;;;;10.07;6.10;;;;;8.60;103681.00;;;;10531106;28;20681;-75
2022/03/18 22:50:33;;;;;;;13.00;6.57;;;;;8.50;103677.00;;;;10541838;28;20649;-75
2022/03/18 22:55:36;;;;;;;12.63;7.40;;;;;8.50;103678.00;;;;10528278;28;20295;-75
2022/03/18 23:00:38;;;;;;;11.23;6.83;;;;;8.50;103675.00;;;;10514420;28;20196;-75
2022/03/18 23:05:40;;;;;;;12.57;7.03;;;;;8.50;103675.00;;;;10530542;28;20196;-75
2022/03/18 23:16:03;;;;;;;11.43;6.90;;;;;8.40;103652.00;;;;10545914;28;20206;-75
2022/03/18 23:21:05;;;;;;;12.47;7.53;;;;;8.20;103653.00;;;;10547572;28;20666;-75
2022/03/18 23:26:08;;;;;;;13.50;7.60;;;;;8.20;103651.00;;;;10530281;28;20195;-75
2022/03/18 23:31:10;;;;;;;12.70;7.70;;;;;8.20;103651.00;;;;10563930;28;20184;-75
2022/03/18 23:36:12;;;;;;;12.07;6.93;;;;;8.20;103660.00;;;;10545420;28;20218;-76
2022/03/18 23:41:16;;;;;;;12.00;6.30;;;;;8.20;103645.00;;;;10536127;28;20693;-75
2022/03/18 23:46:18;;;;;;;10.77;7.13;;;;;8.20;103646.00;;;;10545541;28;20937;-75
2022/03/18 23:51:20;;;;;;;12.53;7.27;;;;;8.20;103668.00;;;;10563455;28;20200;-75
2022/03/18 23:56:22;;;;;;;12.50;6.97;;;;;8.10;103653.00;;;;10546746;28;20218;-75
